createdAt,value
2019-04-11T00:00:27.733Z,0.70
2019-04-11T00:02:57.273Z,0.38
2019-04-11T00:05:26.555Z,0.40
2019-04-11T00:07:54.839Z,0.56
2019-04-11T00:10:23.196Z,0.66
2019-04-11T00:12:51.601Z,0.57
2019-04-11T00:15:20.317Z,0.58
2019-04-11T00:17:48.723Z,0.20
2019-04-11T00:20:17.987Z,0.75
2019-04-11T00:22:47.912Z,0.27
2019-04-11T00:25:16.144Z,0.20
2019-04-11T00:27:45.443Z,0.50
2019-04-11T00:30:15.665Z,0.68
2019-04-11T00:32:43.910Z,0.70
2019-04-11T00:35:12.240Z,0.77
2019-04-11T00:37:41.246Z,0.60
2019-04-11T00:40:09.656Z,0.79
2019-04-11T00:42:38.742Z,0.83
2019-04-11T00:45:07.635Z,0.37
2019-04-11T00:47:35.798Z,0.48
2019-04-11T00:50:05.522Z,0.43
2019-04-11T00:52:34.084Z,0.04
2019-04-11T00:55:03.014Z,0.32
2019-04-11T00:57:32.752Z,0.39
2019-04-11T01:00:00.905Z,-0.23
2019-04-11T01:02:29.455Z,0.05
2019-04-11T01:04:59.255Z,-0.03
2019-04-11T01:07:29.113Z,-0.27
2019-04-11T01:09:57.376Z,0.21
2019-04-11T01:12:26.747Z,-0.34
2019-04-11T01:14:55.486Z,-0.12
2019-04-11T01:17:23.663Z,0.12
2019-04-11T01:19:53.114Z,0.33
2019-04-11T01:22:22.284Z,0.12
2019-04-11T01:24:52.272Z,0.33
2019-04-11T01:27:21.554Z,0.07
2019-04-11T01:29:49.770Z,0.29
2019-04-11T01:32:18.076Z,0.40
2019-04-11T01:34:46.311Z,0.21
2019-04-11T01:37:15.446Z,0.16
2019-04-11T01:39:53.685Z,0.23
2019-04-11T01:42:22.796Z,-0.36
2019-04-11T01:44:51.113Z,0.00
2019-04-11T01:47:39.356Z,-0.13
2019-04-11T01:50:08.458Z,0.05
2019-04-11T01:52:38.307Z,-0.50
2019-04-11T01:55:06.854Z,-0.16
2019-04-11T01:57:36.129Z,-0.03
2019-04-11T02:00:26.049Z,-0.01
2019-04-11T02:02:57.261Z,0.10
2019-04-11T02:05:45.319Z,-0.03
2019-04-11T02:08:13.541Z,-0.06
2019-04-11T02:10:41.670Z,-0.07
2019-04-11T02:13:09.982Z,-0.65
2019-04-11T02:15:38.708Z,-0.31
2019-04-11T02:18:07.584Z,-0.54
2019-04-11T02:20:36.924Z,-0.31
2019-04-11T02:28:41.202Z,-0.67
2019-04-11T02:31:11.553Z,-0.34
2019-04-11T02:33:41.226Z,-0.26
2019-04-11T02:36:11.281Z,-0.36
2019-04-11T02:38:41.089Z,-0.52
2019-04-11T02:41:10.609Z,-0.20
2019-04-11T02:43:42.017Z,-0.15
2019-04-11T02:46:17.246Z,-0.19
2019-04-11T02:48:40.485Z,-0.19
2019-04-11T02:51:09.868Z,-0.01
2019-04-11T02:53:39.026Z,-0.02
2019-04-11T02:56:09.286Z,-0.17
2019-04-11T02:58:39.028Z,-0.51
2019-04-11T03:01:08.150Z,-0.74
2019-04-11T03:03:37.442Z,-0.78
2019-04-11T03:06:09.197Z,-0.57
2019-04-11T03:08:38.885Z,-0.11
2019-04-11T03:11:07.776Z,-0.47
2019-04-11T03:13:38.277Z,-0.52
2019-04-11T03:16:23.740Z,-0.83
2019-04-11T03:18:57.351Z,-0.87
2019-04-11T03:21:13.019Z,-0.65
2019-04-11T03:23:37.425Z,-0.49
2019-04-11T03:26:07.387Z,-0.12
2019-04-11T03:28:38.324Z,-0.26
2019-04-11T03:31:47.366Z,-0.46
2019-04-11T03:34:30.574Z,-0.13
2019-04-11T03:37:01.166Z,-0.44
2019-04-11T03:38:55.114Z,-0.24
2019-04-11T03:41:23.586Z,-0.49
2019-04-11T03:43:50.239Z,-0.76
2019-04-11T03:46:26.552Z,-0.54
2019-04-11T03:48:51.126Z,-0.89
2019-04-11T03:51:08.864Z,-0.72
2019-04-11T03:53:37.312Z,-1.00
2019-04-11T03:56:12.001Z,-1.06
2019-04-11T03:58:41.724Z,-0.82
2019-04-11T04:01:11.503Z,-0.40
2019-04-11T04:03:40.053Z,-0.44
2019-04-11T04:06:09.014Z,-0.26
2019-04-11T04:08:38.724Z,-0.25
2019-04-11T04:11:16.907Z,-0.54
2019-04-11T04:14:05.053Z,-0.29
2019-04-11T04:16:54.841Z,-0.25
2019-04-11T04:19:41.388Z,-0.37
2019-04-11T04:25:08.273Z,-0.79
2019-04-11T04:27:36.477Z,-0.44
2019-04-11T04:30:05.991Z,-0.79
2019-04-11T04:32:34.390Z,-1.14
2019-04-11T04:35:03.095Z,-0.86
2019-04-11T04:37:34.628Z,-0.63
2019-04-11T04:40:24.029Z,-0.68
2019-04-11T04:42:40.311Z,-0.82
2019-04-11T04:45:05.070Z,-0.85
2019-04-11T04:47:44.191Z,-0.65
2019-04-11T04:50:04.529Z,-0.92
2019-04-11T04:52:34.379Z,-0.69
2019-04-11T04:55:05.573Z,-0.91
2019-04-11T04:57:33.901Z,-1.06
2019-04-11T05:00:05.025Z,-0.77
2019-04-11T05:02:34.808Z,-1.09
2019-04-11T05:05:04.282Z,-0.95
2019-04-11T05:07:37.880Z,-0.89
2019-04-11T05:10:03.278Z,-0.99
2019-04-11T05:12:32.280Z,-1.17
2019-04-11T05:15:01.535Z,-1.20
2019-04-11T05:17:29.943Z,-0.98
2019-04-11T05:19:58.507Z,-1.16
2019-04-11T05:22:26.860Z,-1.07
2019-04-11T05:24:56.035Z,-1.12
2019-04-11T05:27:25.157Z,-1.10
2019-04-11T05:29:53.617Z,-1.11
2019-04-11T05:32:21.991Z,-1.10
2019-04-11T05:34:51.180Z,-1.08
2019-04-11T05:37:20.730Z,-1.07
2019-04-11T05:39:48.933Z,-0.99
2019-04-11T05:42:19.411Z,-0.87
2019-04-11T05:44:47.287Z,-0.75
2019-04-11T05:47:18.477Z,-0.60
2019-04-11T05:49:52.691Z,-0.48
2019-04-11T05:52:20.883Z,-0.37
2019-04-11T05:54:52.579Z,-0.20
2019-04-11T05:57:24.096Z,0.11
2019-04-11T05:59:54.351Z,0.27
2019-04-11T06:02:39.815Z,0.44
2019-04-11T06:05:46.249Z,0.96
2019-04-11T06:08:22.632Z,1.40
2019-04-11T06:11:06.250Z,1.51
2019-04-11T06:13:53.460Z,1.73
2019-04-11T06:16:22.883Z,1.78
2019-04-11T06:19:21.346Z,1.68
2019-04-11T06:21:52.615Z,1.76
2019-04-11T06:24:40.618Z,1.58
2019-04-11T06:27:28.489Z,1.57
2019-04-11T06:30:24.311Z,1.57
2019-04-11T06:33:10.175Z,1.49
2019-04-11T06:36:09.605Z,1.48
2019-04-11T06:38:49.285Z,1.60
2019-04-11T06:41:33.266Z,1.80
2019-04-11T06:44:08.822Z,1.97
2019-04-11T06:46:58.014Z,2.04
2019-04-11T06:49:34.205Z,2.14
2019-04-11T06:52:04.491Z,2.39
2019-04-11T06:54:43.412Z,2.55
2019-04-11T06:57:16.056Z,2.73
2019-04-11T06:59:45.552Z,2.71
2019-04-11T07:02:19.232Z,2.90
2019-04-11T07:04:54.802Z,2.95
2019-04-11T07:07:27.016Z,3.19
2019-04-11T07:10:02.249Z,3.22
2019-04-11T07:12:49.455Z,3.43
2019-04-11T07:15:37.700Z,3.43
2019-04-11T07:18:24.825Z,3.73
2019-04-11T07:20:58.919Z,3.64
2019-04-11T07:23:44.756Z,3.92
2019-04-11T07:26:33.344Z,4.33
2019-04-11T07:29:23.931Z,4.66
2019-04-11T07:32:18.015Z,4.55
2019-04-11T07:35:05.589Z,5.10
2019-04-11T07:37:51.069Z,5.94
2019-04-11T07:40:39.208Z,5.60
2019-04-11T07:43:33.653Z,5.84
2019-04-11T07:46:25.147Z,5.84
2019-04-11T07:49:12.562Z,5.90
2019-04-11T07:51:48.529Z,5.99
2019-04-11T07:54:20.133Z,6.15
2019-04-11T07:57:04.057Z,6.37
2019-04-11T07:59:51.872Z,6.48
2019-04-11T08:02:39.910Z,6.69
2019-04-11T08:05:32.105Z,6.55
2019-04-11T08:08:23.244Z,7.03
2019-04-11T08:11:00.250Z,7.15
2019-04-11T08:13:32.880Z,7.34
2019-04-11T08:16:39.171Z,7.63
2019-04-11T08:19:26.861Z,7.61
2019-04-11T08:22:23.066Z,8.03
2019-04-11T08:25:09.709Z,8.12
2019-04-11T08:27:52.979Z,8.37
2019-04-11T08:30:12.789Z,8.33
2019-04-11T08:32:51.940Z,8.81
2019-04-11T08:35:51.966Z,9.22
2019-04-11T08:38:28.800Z,9.32
2019-04-11T08:41:17.643Z,9.03
2019-04-11T08:43:45.848Z,9.46
2019-04-11T08:46:18.469Z,9.74
2019-04-11T08:48:51.113Z,10.18
2019-04-11T08:51:19.527Z,10.13
2019-04-11T08:54:07.065Z,10.66
2019-04-11T08:56:36.782Z,10.67
2019-04-11T08:59:46.168Z,11.27
2019-04-11T09:02:18.648Z,11.56
2019-04-11T09:05:11.953Z,11.85
2019-04-11T09:07:54.125Z,11.85
2019-04-11T09:10:42.374Z,12.01
2019-04-11T09:13:19.447Z,11.95
2019-04-11T09:16:07.595Z,12.59
2019-04-11T09:18:36.482Z,12.65
2019-04-11T09:21:42.477Z,12.43
2019-04-11T09:24:30.510Z,13.13
2019-04-11T09:27:36.533Z,13.27
2019-04-11T09:30:12.739Z,13.36
2019-04-11T09:32:44.438Z,13.98
2019-04-11T09:35:22.298Z,14.34
2019-04-11T09:37:51.693Z,14.34
2019-04-11T09:40:39.607Z,14.24
2019-04-11T09:43:13.565Z,14.66
2019-04-11T09:45:59.770Z,14.56
2019-04-11T09:48:56.047Z,14.13
2019-04-11T09:51:33.942Z,13.52
2019-04-11T09:54:12.328Z,13.19
2019-04-11T09:56:58.187Z,14.84
2019-04-11T09:59:33.365Z,15.08
2019-04-11T10:02:16.977Z,15.58
2019-04-11T10:04:45.338Z,14.82
2019-04-11T10:07:33.541Z,15.37
2019-04-11T10:10:39.925Z,15.40
2019-04-11T10:13:43.405Z,14.01
2019-04-11T10:16:46.506Z,15.27
2019-04-11T10:19:49.132Z,15.89
2019-04-11T10:22:36.270Z,15.60
2019-04-11T10:25:23.679Z,15.12
2019-04-11T10:28:11.239Z,15.18
2019-04-11T10:31:08.601Z,15.19
2019-04-11T10:33:59.627Z,11.27
2019-04-11T10:36:45.491Z,12.16
2019-04-11T10:39:29.147Z,13.28
2019-04-11T10:42:02.097Z,14.03
2019-04-11T10:44:42.330Z,14.63
2019-04-11T10:47:22.908Z,14.63
2019-04-11T10:50:11.146Z,14.58
2019-04-11T10:52:43.137Z,14.04
2019-04-11T10:55:17.780Z,14.03
2019-04-11T10:57:48.785Z,14.08
2019-04-11T11:00:31.328Z,13.77
2019-04-11T11:03:18.539Z,12.68
2019-04-11T11:05:49.745Z,13.38
2019-04-11T11:08:46.239Z,13.22
2019-04-11T11:11:19.467Z,13.22
2019-04-11T11:14:07.605Z,13.45
2019-04-11T11:16:44.941Z,13.60
2019-04-11T11:19:48.744Z,13.15
2019-04-11T11:22:15.284Z,12.99
2019-04-11T11:25:02.604Z,12.92
2019-04-11T11:27:30.848Z,13.09
2019-04-11T11:30:16.632Z,13.26
2019-04-11T11:32:46.947Z,12.19
2019-04-11T11:35:42.998Z,13.12
2019-04-11T11:38:14.952Z,12.67
2019-04-11T11:41:00.500Z,12.70
2019-04-11T11:43:31.076Z,13.11
2019-04-11T11:46:06.945Z,12.76
2019-04-11T11:48:47.281Z,13.10
2019-04-11T11:51:33.277Z,13.40
2019-04-11T11:54:33.434Z,13.41
2019-04-11T11:57:06.534Z,12.19
2019-04-11T11:59:46.002Z,12.13
2019-04-11T12:02:33.146Z,12.05
2019-04-11T12:05:16.238Z,12.56
2019-04-11T12:08:08.753Z,11.93
2019-04-11T12:10:45.890Z,12.68
2019-04-11T12:13:40.227Z,12.24
2019-04-11T12:16:37.804Z,11.76
2019-04-11T12:19:44.876Z,11.74
2019-04-11T12:22:04.360Z,11.64
2019-04-11T12:24:52.421Z,11.99
2019-04-11T12:27:50.083Z,12.53
2019-04-11T12:30:37.527Z,12.50
2019-04-11T12:33:23.514Z,12.33
2019-04-11T12:35:59.552Z,11.04
2019-04-11T12:38:46.642Z,8.56
2019-04-11T12:41:33.748Z,10.59
2019-04-11T12:44:29.134Z,12.00
2019-04-11T12:47:15.343Z,10.77
2019-04-11T12:49:59.054Z,10.40
2019-04-11T12:52:35.802Z,11.66
2019-04-11T12:55:04.115Z,10.38
2019-04-11T12:58:09.292Z,12.04
2019-04-11T13:00:55.090Z,11.20
2019-04-11T13:03:42.319Z,11.19
2019-04-11T13:06:18.103Z,11.18
2019-04-11T13:09:10.907Z,11.44
2019-04-11T13:11:40.206Z,11.32
2019-04-11T13:14:16.198Z,10.71
2019-04-11T13:16:46.389Z,11.47
2019-04-11T13:19:39.856Z,11.83
2019-04-11T13:22:12.652Z,11.92
2019-04-11T13:24:58.356Z,11.23
2019-04-11T13:27:33.546Z,9.24
2019-04-11T13:30:20.681Z,9.44
2019-04-11T13:32:59.541Z,10.11
2019-04-11T13:36:04.866Z,11.83
2019-04-11T13:38:36.710Z,11.89
2019-04-11T13:41:22.483Z,11.00
2019-04-11T13:44:02.541Z,11.61
2019-04-11T13:46:49.653Z,10.70
2019-04-11T13:49:36.790Z,11.46
2019-04-11T13:52:28.057Z,11.09
2019-04-11T13:55:15.442Z,10.78
2019-04-11T13:58:02.920Z,10.71
2019-04-11T14:00:59.122Z,10.25
2019-04-11T14:03:49.476Z,10.09
2019-04-11T14:06:32.509Z,11.05
2019-04-11T14:09:22.911Z,11.20
2019-04-11T14:12:04.865Z,11.21
2019-04-11T14:14:52.068Z,11.06
2019-04-11T14:17:41.621Z,11.49
2019-04-11T14:20:29.018Z,11.57
2019-04-11T14:23:14.788Z,11.05
2019-04-11T14:26:04.349Z,11.31
2019-04-11T14:28:51.507Z,11.08
2019-04-11T14:31:36.559Z,11.13
2019-04-11T14:34:23.823Z,11.24
2019-04-11T14:37:20.033Z,10.79
2019-04-11T14:39:50.506Z,11.30
2019-04-11T14:42:48.696Z,10.98
2019-04-11T14:45:29.455Z,10.39
2019-04-11T14:48:15.051Z,10.83
2019-04-11T14:51:02.754Z,10.52
2019-04-11T14:53:46.498Z,11.08
2019-04-11T14:56:13.277Z,10.28
2019-04-11T14:59:03.285Z,10.33
2019-04-11T15:01:31.865Z,9.81
2019-04-11T15:04:27.686Z,10.21
2019-04-11T15:06:56.052Z,10.16
2019-04-11T15:09:46.801Z,10.12
2019-04-11T15:12:21.137Z,10.17
2019-04-11T15:15:23.443Z,10.19
2019-04-11T15:17:55.846Z,9.98
2019-04-11T15:20:55.988Z,10.11
2019-04-11T15:23:29.887Z,9.99
2019-04-11T15:26:22.955Z,10.19
2019-04-11T15:29:07.223Z,10.13
2019-04-11T15:31:53.017Z,9.50
2019-04-11T15:34:46.347Z,9.91
2019-04-11T15:37:51.360Z,9.73
2019-04-11T15:40:53.308Z,9.78
2019-04-11T15:43:43.346Z,9.81
2019-04-11T15:46:14.670Z,9.22
2019-04-11T15:49:02.970Z,9.75
2019-04-11T15:51:36.086Z,9.47
2019-04-11T15:54:26.776Z,9.53
2019-04-11T15:57:26.971Z,9.37
2019-04-11T16:00:29.073Z,8.73
2019-04-11T16:03:08.782Z,9.34
2019-04-11T16:06:05.124Z,9.35
2019-04-11T16:08:54.171Z,9.46
2019-04-11T16:11:43.882Z,8.97
2019-04-11T16:14:28.831Z,9.29
2019-04-11T16:17:16.084Z,9.30
2019-04-11T16:20:01.717Z,9.18
2019-04-11T16:22:48.837Z,7.88
2019-04-11T16:25:21.454Z,8.76
2019-04-11T16:28:08.659Z,9.19
2019-04-11T16:30:45.144Z,9.00
2019-04-11T16:33:32.264Z,9.04
2019-04-11T16:36:02.860Z,9.16
2019-04-11T16:38:34.244Z,8.80
2019-04-11T16:41:23.684Z,8.77
2019-04-11T16:43:54.894Z,8.91
2019-04-11T16:46:41.328Z,8.92
2019-04-11T16:49:09.674Z,8.71
2019-04-11T16:51:37.798Z,8.63
2019-04-11T16:54:09.546Z,8.33
2019-04-11T16:56:35.903Z,8.60
2019-04-11T16:59:04.037Z,8.62
2019-04-11T17:01:32.165Z,8.63
2019-04-11T17:04:00.332Z,8.41
2019-04-11T17:06:47.400Z,8.44
2019-04-11T17:09:26.687Z,8.33
2019-04-11T17:11:56.600Z,8.43
2019-04-11T17:14:28.106Z,7.92
2019-04-11T17:16:54.501Z,8.23
2019-04-11T17:19:22.650Z,8.32
2019-04-11T17:21:50.770Z,7.60
2019-04-11T17:24:19.042Z,7.77
2019-04-11T17:26:47.375Z,7.76
2019-04-11T17:29:15.510Z,7.89
2019-04-11T17:31:43.738Z,7.89
2019-04-11T17:34:12.214Z,7.87
2019-04-11T17:36:40.526Z,7.54
2019-04-11T17:39:08.708Z,7.38
2019-04-11T17:41:36.934Z,7.57
2019-04-11T17:44:05.268Z,7.37
2019-04-11T17:46:33.692Z,7.18
2019-04-11T17:49:01.986Z,6.86
2019-04-11T17:51:30.327Z,7.09
2019-04-11T17:53:58.508Z,6.71
2019-04-11T17:56:26.619Z,7.21
2019-04-11T17:58:57.650Z,7.40
2019-04-11T18:01:24.681Z,7.43
2019-04-11T18:03:52.977Z,7.32
2019-04-11T18:06:21.177Z,7.29
2019-04-11T18:08:51.518Z,7.14
2019-04-11T18:11:19.410Z,6.99
2019-04-11T18:13:47.675Z,7.14
2019-04-11T18:16:15.773Z,7.09
2019-04-11T18:18:44.027Z,7.06
2019-04-11T18:21:12.228Z,6.99
2019-04-11T18:23:40.477Z,6.85
2019-04-11T18:26:08.733Z,6.82
2019-04-11T18:28:37.025Z,6.54
2019-04-11T18:31:05.431Z,6.66
2019-04-11T18:33:33.622Z,6.22
2019-04-11T18:36:02.774Z,6.57
2019-04-11T18:38:32.117Z,6.79
2019-04-11T18:41:00.934Z,6.77
2019-04-11T18:43:29.205Z,6.76
2019-04-11T18:45:57.399Z,6.71
2019-04-11T18:48:25.637Z,6.65
2019-04-11T18:50:53.915Z,6.48
2019-04-11T18:53:22.048Z,6.24
2019-04-11T18:55:50.511Z,6.48
2019-04-11T18:58:18.706Z,6.47
2019-04-11T19:00:46.896Z,6.53
2019-04-11T19:03:15.321Z,6.43
2019-04-11T19:05:43.721Z,6.32
2019-04-11T19:08:13.170Z,6.23
2019-04-11T19:10:42.888Z,6.27
2019-04-11T19:13:11.746Z,6.24
2019-04-11T19:15:39.859Z,5.81
2019-04-11T19:18:08.161Z,6.13
2019-04-11T19:20:36.332Z,6.01
2019-04-11T19:23:09.090Z,6.15
2019-04-11T19:25:34.426Z,6.09
2019-04-11T19:28:02.657Z,6.14
2019-04-11T19:30:30.818Z,6.07
2019-04-11T19:32:59.024Z,6.04
2019-04-11T19:35:27.198Z,6.06
2019-04-11T19:40:47.003Z,5.91
2019-04-11T19:43:14.266Z,5.91
2019-04-11T19:45:42.500Z,5.97
2019-04-11T19:48:10.755Z,5.96
2019-04-11T19:50:38.889Z,5.96
2019-04-11T19:53:07.026Z,6.04
2019-04-11T19:56:12.405Z,5.88
2019-04-11T19:58:40.691Z,5.89
2019-04-11T20:01:08.952Z,5.71
2019-04-11T20:03:37.165Z,5.86
2019-04-11T20:06:05.381Z,5.82
2019-04-11T20:08:33.643Z,5.80
2019-04-11T20:11:01.973Z,5.91
2019-04-11T20:13:32.332Z,5.72
2019-04-11T20:16:00.115Z,5.25
2019-04-11T20:18:28.359Z,5.71
2019-04-11T20:20:56.539Z,5.71
2019-04-11T20:23:24.685Z,5.63
2019-04-11T20:25:53.103Z,5.62
2019-04-11T20:28:21.266Z,5.58
2019-04-11T20:30:49.502Z,5.75
2019-04-11T20:33:26.578Z,5.69
2019-04-11T20:35:47.527Z,5.69
2019-04-11T20:38:16.659Z,5.71
2019-04-11T20:40:44.917Z,5.71
2019-04-11T20:43:13.056Z,5.57
2019-04-11T20:45:41.635Z,5.53
2019-04-11T20:48:10.045Z,5.54
2019-04-11T20:50:38.188Z,4.99
2019-04-11T20:53:12.660Z,5.23
2019-04-11T20:55:39.105Z,5.40
2019-04-11T20:58:27.430Z,5.51
2019-04-11T21:00:55.987Z,5.50
2019-04-11T21:03:24.758Z,5.16
2019-04-11T21:05:53.009Z,5.42
2019-04-11T21:08:21.187Z,5.46
2019-04-11T21:10:49.504Z,5.38
2019-04-11T21:13:17.753Z,5.45
2019-04-11T21:15:46.616Z,5.35
2019-04-11T21:18:14.763Z,5.56
2019-04-11T21:20:43.393Z,5.57
2019-04-11T21:23:11.555Z,5.27
2019-04-11T21:25:39.798Z,5.30
2019-04-11T21:28:07.958Z,5.37
2019-04-11T21:30:36.205Z,5.22
2019-04-11T21:33:12.000Z,5.17
2019-04-11T21:35:40.603Z,5.23
2019-04-11T21:38:08.956Z,5.25
2019-04-11T21:40:37.172Z,5.31
2019-04-11T21:43:06.173Z,5.34
2019-04-11T21:45:36.000Z,5.08
2019-04-11T21:48:06.853Z,5.09
2019-04-11T21:50:34.583Z,5.27
2019-04-11T21:53:02.749Z,5.22
2019-04-11T21:55:30.911Z,5.21
2019-04-11T21:57:59.292Z,5.17
2019-04-11T22:03:32.537Z,4.81
2019-04-11T22:06:00.708Z,4.86
2019-04-11T22:08:28.891Z,4.94
2019-04-11T22:10:57.167Z,4.98
2019-04-11T22:13:25.324Z,4.91
2019-04-11T22:15:53.498Z,4.98
2019-04-11T22:18:22.405Z,4.90
2019-04-11T22:20:50.573Z,4.89
2019-04-11T22:23:18.809Z,4.79
2019-04-11T22:25:46.963Z,4.79
2019-04-11T22:28:15.159Z,5.06
2019-04-11T22:30:43.451Z,4.95
2019-04-11T22:33:30.601Z,4.97
2019-04-11T22:35:59.367Z,5.03
2019-04-11T22:38:30.550Z,4.98
2019-04-11T22:41:01.602Z,4.86
2019-04-11T22:43:28.071Z,5.01
2019-04-11T22:45:56.336Z,5.07
2019-04-11T22:48:24.541Z,4.86
2019-04-11T22:50:52.819Z,4.84
2019-04-11T22:53:20.988Z,4.86
2019-04-11T22:55:49.235Z,4.68
2019-04-11T22:58:22.619Z,4.76
2019-04-11T23:00:51.705Z,4.62
2019-04-11T23:03:33.157Z,4.66
2019-04-11T23:06:01.380Z,4.64
2019-04-11T23:08:29.611Z,4.38
2019-04-11T23:10:57.876Z,4.17
2019-04-11T23:13:26.069Z,4.59
2019-04-11T23:15:54.249Z,4.70
2019-04-11T23:18:22.419Z,4.65
2019-04-11T23:20:50.889Z,4.54
2019-04-11T23:23:19.063Z,4.64
2019-04-11T23:25:47.305Z,4.71
2019-04-11T23:28:16.399Z,4.70
2019-04-11T23:30:49.502Z,4.40
2019-04-11T23:33:15.331Z,4.55
2019-04-11T23:35:43.430Z,4.60
2019-04-11T23:38:16.435Z,4.59
2019-04-11T23:40:44.398Z,4.43
2019-04-11T23:43:12.581Z,4.68
2019-04-11T23:45:40.814Z,4.72
2019-04-11T23:48:09.137Z,4.71
2019-04-11T23:50:37.354Z,4.58
2019-04-11T23:55:40.942Z,4.44
2019-04-11T23:58:09.153Z,4.51
